sensor_id;sensor_type;location;lat;lon;timestamp;temperature;humidity
27314;DHT22;14800;48.174;9.798;2023-09-07T00:01:27;16.50;78.10
27314;DHT22;14800;48.174;9.798;2023-09-07T00:03:52;16.40;78.00
27314;DHT22;14800;48.174;9.798;2023-09-07T00:06:18;16.40;78.00
27314;DHT22;14800;48.174;9.798;2023-09-07T00:08:44;16.40;78.10
27314;DHT22;14800;48.174;9.798;2023-09-07T00:11:09;16.30;78.20
27314;DHT22;14800;48.174;9.798;2023-09-07T00:13:36;16.30;79.20
27314;DHT22;14800;48.174;9.798;2023-09-07T00:16:05;16.20;78.40
27314;DHT22;14800;48.174;9.798;2023-09-07T00:18:31;16.20;78.90
27314;DHT22;14800;48.174;9.798;2023-09-07T00:20:58;16.10;78.80
27314;DHT22;14800;48.174;9.798;2023-09-07T00:23:25;16.10;78.70
27314;DHT22;14800;48.174;9.798;2023-09-07T00:25:51;16.20;79.60
27314;DHT22;14800;48.174;9.798;2023-09-07T00:28:16;16.10;78.80
27314;DHT22;14800;48.174;9.798;2023-09-07T00:30:42;16.20;78.90
27314;DHT22;14800;48.174;9.798;2023-09-07T00:33:07;16.20;78.80
27314;DHT22;14800;48.174;9.798;2023-09-07T00:35:33;16.10;78.60
27314;DHT22;14800;48.174;9.798;2023-09-07T00:37:59;16.10;78.50
27314;DHT22;14800;48.174;9.798;2023-09-07T00:40:25;16.20;78.70
27314;DHT22;14800;48.174;9.798;2023-09-07T00:42:52;16.20;78.70
27314;DHT22;14800;48.174;9.798;2023-09-07T00:45:17;16.10;78.60
27314;DHT22;14800;48.174;9.798;2023-09-07T00:47:43;16.10;78.60
27314;DHT22;14800;48.174;9.798;2023-09-07T00:50:09;16.10;78.70
27314;DHT22;14800;48.174;9.798;2023-09-07T00:52:36;16.00;78.70
27314;DHT22;14800;48.174;9.798;2023-09-07T00:55:05;16.00;78.90
27314;DHT22;14800;48.174;9.798;2023-09-07T00:57:32;15.90;78.90
27314;DHT22;14800;48.174;9.798;2023-09-07T00:59:58;15.90;79.00
27314;DHT22;14800;48.174;9.798;2023-09-07T01:02:23;15.90;79.20
27314;DHT22;14800;48.174;9.798;2023-09-07T01:04:51;15.80;79.30
27314;DHT22;14800;48.174;9.798;2023-09-07T01:07:20;15.80;79.50
27314;DHT22;14800;48.174;9.798;2023-09-07T01:09:56;15.80;79.80
27314;DHT22;14800;48.174;9.798;2023-09-07T01:12:23;15.70;79.90
27314;DHT22;14800;48.174;9.798;2023-09-07T01:14:49;15.70;79.80
27314;DHT22;14800;48.174;9.798;2023-09-07T01:17:14;15.60;80.00
27314;DHT22;14800;48.174;9.798;2023-09-07T01:19:41;15.60;80.20
27314;DHT22;14800;48.174;9.798;2023-09-07T01:22:08;15.70;80.30
27314;DHT22;14800;48.174;9.798;2023-09-07T01:24:35;15.70;80.50
27314;DHT22;14800;48.174;9.798;2023-09-07T01:27:03;15.70;80.30
27314;DHT22;14800;48.174;9.798;2023-09-07T01:29:30;15.70;80.20
27314;DHT22;14800;48.174;9.798;2023-09-07T01:31:56;15.80;80.10
27314;DHT22;14800;48.174;9.798;2023-09-07T01:34:23;15.70;80.10
27314;DHT22;14800;48.174;9.798;2023-09-07T01:36:49;15.70;80.10
27314;DHT22;14800;48.174;9.798;2023-09-07T01:39:15;15.70;80.30
27314;DHT22;14800;48.174;9.798;2023-09-07T01:41:42;15.70;81.20
27314;DHT22;14800;48.174;9.798;2023-09-07T01:44:08;15.70;80.60
27314;DHT22;14800;48.174;9.798;2023-09-07T01:46:33;15.70;80.60
27314;DHT22;14800;48.174;9.798;2023-09-07T01:49:01;15.70;80.60
27314;DHT22;14800;48.174;9.798;2023-09-07T01:51:26;15.60;80.40
27314;DHT22;14800;48.174;9.798;2023-09-07T01:53:53;15.60;80.30
27314;DHT22;14800;48.174;9.798;2023-09-07T01:56:19;15.60;81.00
27314;DHT22;14800;48.174;9.798;2023-09-07T01:58:45;15.50;80.10
27314;DHT22;14800;48.174;9.798;2023-09-07T02:01:28;15.50;80.30
27314;DHT22;14800;48.174;9.798;2023-09-07T02:03:55;15.40;81.30
27314;DHT22;14800;48.174;9.798;2023-09-07T02:06:21;15.40;80.50
27314;DHT22;14800;48.174;9.798;2023-09-07T02:08:46;15.30;80.70
27314;DHT22;14800;48.174;9.798;2023-09-07T02:11:12;15.30;81.00
27314;DHT22;14800;48.174;9.798;2023-09-07T02:13:37;15.20;81.20
27314;DHT22;14800;48.174;9.798;2023-09-07T02:16:06;15.20;81.20
27314;DHT22;14800;48.174;9.798;2023-09-07T02:18:32;15.20;81.20
27314;DHT22;14800;48.174;9.798;2023-09-07T02:21:02;15.20;81.20
27314;DHT22;14800;48.174;9.798;2023-09-07T02:23:28;15.20;81.20
27314;DHT22;14800;48.174;9.798;2023-09-07T02:25:54;15.10;81.30
27314;DHT22;14800;48.174;9.798;2023-09-07T02:28:19;15.10;81.60
27314;DHT22;14800;48.174;9.798;2023-09-07T02:30:45;15.00;81.80
27314;DHT22;14800;48.174;9.798;2023-09-07T02:33:11;15.00;81.90
27314;DHT22;14800;48.174;9.798;2023-09-07T02:35:39;15.00;81.90
27314;DHT22;14800;48.174;9.798;2023-09-07T02:38:04;15.00;82.00
27314;DHT22;14800;48.174;9.798;2023-09-07T02:40:30;15.00;81.80
27314;DHT22;14800;48.174;9.798;2023-09-07T02:42:56;15.10;81.90
27314;DHT22;14800;48.174;9.798;2023-09-07T02:45:21;15.10;81.80
27314;DHT22;14800;48.174;9.798;2023-09-07T02:47:47;15.10;81.60
27314;DHT22;14800;48.174;9.798;2023-09-07T02:50:16;15.10;81.50
27314;DHT22;14800;48.174;9.798;2023-09-07T02:52:42;15.10;81.40
27314;DHT22;14800;48.174;9.798;2023-09-07T02:55:08;15.10;81.30
27314;DHT22;14800;48.174;9.798;2023-09-07T02:57:34;15.00;81.20
27314;DHT22;14800;48.174;9.798;2023-09-07T03:00:00;15.00;81.30
27314;DHT22;14800;48.174;9.798;2023-09-07T03:02:27;14.90;81.30
27314;DHT22;14800;48.174;9.798;2023-09-07T03:04:55;14.90;81.50
27314;DHT22;14800;48.174;9.798;2023-09-07T03:07:24;14.90;81.90
27314;DHT22;14800;48.174;9.798;2023-09-07T03:09:52;14.80;82.00
27314;DHT22;14800;48.174;9.798;2023-09-07T03:12:17;14.80;82.40
27314;DHT22;14800;48.174;9.798;2023-09-07T03:14:43;14.80;82.40
27314;DHT22;14800;48.174;9.798;2023-09-07T03:17:09;14.70;83.30
27314;DHT22;14800;48.174;9.798;2023-09-07T03:19:36;14.70;82.70
27314;DHT22;14800;48.174;9.798;2023-09-07T03:22:01;14.60;82.90
27314;DHT22;14800;48.174;9.798;2023-09-07T03:24:28;14.70;82.90
27314;DHT22;14800;48.174;9.798;2023-09-07T03:26:54;14.60;83.00
27314;DHT22;14800;48.174;9.798;2023-09-07T03:29:20;14.70;83.10
27314;DHT22;14800;48.174;9.798;2023-09-07T03:31:45;14.60;83.10
27314;DHT22;14800;48.174;9.798;2023-09-07T03:34:11;14.70;83.30
27314;DHT22;14800;48.174;9.798;2023-09-07T03:36:36;14.70;83.30
27314;DHT22;14800;48.174;9.798;2023-09-07T03:39:02;14.70;83.40
27314;DHT22;14800;48.174;9.798;2023-09-07T03:41:28;14.70;83.40
27314;DHT22;14800;48.174;9.798;2023-09-07T03:43:56;14.70;83.30
27314;DHT22;14800;48.174;9.798;2023-09-07T03:46:22;14.70;83.30
27314;DHT22;14800;48.174;9.798;2023-09-07T03:48:47;14.70;83.30
27314;DHT22;14800;48.174;9.798;2023-09-07T03:51:13;14.70;83.30
27314;DHT22;14800;48.174;9.798;2023-09-07T03:53:38;14.80;83.30
27314;DHT22;14800;48.174;9.798;2023-09-07T03:56:04;14.80;83.00
27314;DHT22;14800;48.174;9.798;2023-09-07T03:58:30;14.80;82.80
27314;DHT22;14800;48.174;9.798;2023-09-07T04:00:58;14.90;82.70
27314;DHT22;14800;48.174;9.798;2023-09-07T04:03:25;14.80;82.70
27314;DHT22;14800;48.174;9.798;2023-09-07T04:05:51;14.90;82.70
27314;DHT22;14800;48.174;9.798;2023-09-07T04:08:16;14.80;82.70
27314;DHT22;14800;48.174;9.798;2023-09-07T04:10:42;14.80;82.90
27314;DHT22;14800;48.174;9.798;2023-09-07T04:13:07;14.80;83.30
27314;DHT22;14800;48.174;9.798;2023-09-07T04:15:43;14.80;83.50
27314;DHT22;14800;48.174;9.798;2023-09-07T04:18:12;14.80;84.10
27314;DHT22;14800;48.174;9.798;2023-09-07T04:20:40;14.90;83.80
27314;DHT22;14800;48.174;9.798;2023-09-07T04:23:06;14.90;83.90
27314;DHT22;14800;48.174;9.798;2023-09-07T04:25:32;14.90;83.90
27314;DHT22;14800;48.174;9.798;2023-09-07T04:28:00;15.00;83.80
27314;DHT22;14800;48.174;9.798;2023-09-07T04:30:26;15.00;83.70
27314;DHT22;14800;48.174;9.798;2023-09-07T04:32:52;15.00;83.60
27314;DHT22;14800;48.174;9.798;2023-09-07T04:35:18;15.00;83.60
27314;DHT22;14800;48.174;9.798;2023-09-07T04:37:44;15.00;83.50
27314;DHT22;14800;48.174;9.798;2023-09-07T04:40:10;15.00;83.30
27314;DHT22;14800;48.174;9.798;2023-09-07T04:42:37;15.00;83.20
27314;DHT22;14800;48.174;9.798;2023-09-07T04:45:05;14.90;83.10
27314;DHT22;14800;48.174;9.798;2023-09-07T04:47:30;14.90;82.90
27314;DHT22;14800;48.174;9.798;2023-09-07T04:49:56;14.90;82.90
27314;DHT22;14800;48.174;9.798;2023-09-07T04:52:21;14.90;82.80
27314;DHT22;14800;48.174;9.798;2023-09-07T04:54:47;14.90;82.80
27314;DHT22;14800;48.174;9.798;2023-09-07T04:57:16;14.90;82.70
27314;DHT22;14800;48.174;9.798;2023-09-07T04:59:43;14.90;82.80
27314;DHT22;14800;48.174;9.798;2023-09-07T05:02:09;14.80;82.60
27314;DHT22;14800;48.174;9.798;2023-09-07T05:04:34;14.80;82.70
27314;DHT22;14800;48.174;9.798;2023-09-07T05:07:00;14.80;82.70
27314;DHT22;14800;48.174;9.798;2023-09-07T05:09:25;14.70;82.70
27314;DHT22;14800;48.174;9.798;2023-09-07T05:11:54;14.70;82.90
27314;DHT22;14800;48.174;9.798;2023-09-07T05:14:19;14.70;82.90
27314;DHT22;14800;48.174;9.798;2023-09-07T05:16:45;14.70;83.00
27314;DHT22;14800;48.174;9.798;2023-09-07T05:19:11;14.60;83.10
27314;DHT22;14800;48.174;9.798;2023-09-07T05:21:36;14.60;83.30
27314;DHT22;14800;48.174;9.798;2023-09-07T05:24:02;14.50;83.40
27314;DHT22;14800;48.174;9.798;2023-09-07T05:26:28;14.60;83.60
27314;DHT22;14800;48.174;9.798;2023-09-07T05:28:53;14.50;83.60
27314;DHT22;14800;48.174;9.798;2023-09-07T05:31:19;14.50;83.70
27314;DHT22;14800;48.174;9.798;2023-09-07T05:33:44;14.50;83.80
27314;DHT22;14800;48.174;9.798;2023-09-07T05:36:10;14.50;84.00
27314;DHT22;14800;48.174;9.798;2023-09-07T05:38:36;14.50;84.20
27314;DHT22;14800;48.174;9.798;2023-09-07T05:41:02;14.50;84.30
27314;DHT22;14800;48.174;9.798;2023-09-07T05:43:27;14.50;84.40
27314;DHT22;14800;48.174;9.798;2023-09-07T05:45:53;14.50;84.50
27314;DHT22;14800;48.174;9.798;2023-09-07T05:48:18;14.50;84.80
27314;DHT22;14800;48.174;9.798;2023-09-07T05:50:45;14.50;85.00
27314;DHT22;14800;48.174;9.798;2023-09-07T05:53:10;14.60;85.20
27314;DHT22;14800;48.174;9.798;2023-09-07T05:55:36;14.60;85.20
27314;DHT22;14800;48.174;9.798;2023-09-07T05:58:05;14.70;85.20
27314;DHT22;14800;48.174;9.798;2023-09-07T06:00:31;14.70;85.70
27314;DHT22;14800;48.174;9.798;2023-09-07T06:02:57;14.70;85.70
27314;DHT22;14800;48.174;9.798;2023-09-07T06:05:23;14.80;86.00
27314;DHT22;14800;48.174;9.798;2023-09-07T06:07:48;14.80;86.40
27314;DHT22;14800;48.174;9.798;2023-09-07T06:10:14;14.90;86.60
27314;DHT22;14800;48.174;9.798;2023-09-07T06:12:40;14.90;86.90
27314;DHT22;14800;48.174;9.798;2023-09-07T06:15:07;14.90;87.10
27314;DHT22;14800;48.174;9.798;2023-09-07T06:17:32;15.00;87.30
27314;DHT22;14800;48.174;9.798;2023-09-07T06:19:58;15.10;87.40
27314;DHT22;14800;48.174;9.798;2023-09-07T06:22:23;15.20;87.40
27314;DHT22;14800;48.174;9.798;2023-09-07T06:24:49;15.20;87.50
27314;DHT22;14800;48.174;9.798;2023-09-07T06:27:15;15.30;88.10
27314;DHT22;14800;48.174;9.798;2023-09-07T06:29:40;15.40;88.30
27314;DHT22;14800;48.174;9.798;2023-09-07T06:32:06;15.50;88.60
27314;DHT22;14800;48.174;9.798;2023-09-07T06:34:32;15.60;88.60
27314;DHT22;14800;48.174;9.798;2023-09-07T06:36:57;15.70;88.50
27314;DHT22;14800;48.174;9.798;2023-09-07T06:39:23;15.80;88.60
27314;DHT22;14800;48.174;9.798;2023-09-07T06:41:49;15.90;88.60
27314;DHT22;14800;48.174;9.798;2023-09-07T06:44:14;16.00;88.40
27314;DHT22;14800;48.174;9.798;2023-09-07T06:46:40;16.10;88.30
27314;DHT22;14800;48.174;9.798;2023-09-07T06:49:06;16.20;88.30
27314;DHT22;14800;48.174;9.798;2023-09-07T06:51:32;16.20;88.10
27314;DHT22;14800;48.174;9.798;2023-09-07T06:53:58;16.30;88.10
27314;DHT22;14800;48.174;9.798;2023-09-07T06:56:23;16.40;88.00
27314;DHT22;14800;48.174;9.798;2023-09-07T06:58:49;16.50;88.30
27314;DHT22;14800;48.174;9.798;2023-09-07T07:01:15;16.60;87.90
27314;DHT22;14800;48.174;9.798;2023-09-07T07:03:41;16.60;87.60
27314;DHT22;14800;48.174;9.798;2023-09-07T07:06:06;16.70;87.60
27314;DHT22;14800;48.174;9.798;2023-09-07T07:08:32;16.80;87.40
27314;DHT22;14800;48.174;9.798;2023-09-07T07:10:58;16.80;87.60
27314;DHT22;14800;48.174;9.798;2023-09-07T07:13:23;16.90;87.60
27314;DHT22;14800;48.174;9.798;2023-09-07T07:15:49;16.90;87.40
27314;DHT22;14800;48.174;9.798;2023-09-07T07:18:17;17.00;87.40
27314;DHT22;14800;48.174;9.798;2023-09-07T07:20:43;17.10;87.30
27314;DHT22;14800;48.174;9.798;2023-09-07T07:23:09;17.20;87.40
27314;DHT22;14800;48.174;9.798;2023-09-07T07:25:35;17.20;87.50
27314;DHT22;14800;48.174;9.798;2023-09-07T07:28:03;17.30;87.60
27314;DHT22;14800;48.174;9.798;2023-09-07T07:30:32;17.30;87.20
27314;DHT22;14800;48.174;9.798;2023-09-07T07:32:57;17.40;87.10
27314;DHT22;14800;48.174;9.798;2023-09-07T07:35:23;17.50;87.10
27314;DHT22;14800;48.174;9.798;2023-09-07T07:37:51;17.60;87.10
27314;DHT22;14800;48.174;9.798;2023-09-07T07:40:18;17.70;86.90
27314;DHT22;14800;48.174;9.798;2023-09-07T07:42:44;17.70;86.60
27314;DHT22;14800;48.174;9.798;2023-09-07T07:45:11;17.90;86.60
27314;DHT22;14800;48.174;9.798;2023-09-07T07:47:38;17.90;86.30
27314;DHT22;14800;48.174;9.798;2023-09-07T07:50:04;18.00;86.20
27314;DHT22;14800;48.174;9.798;2023-09-07T07:52:30;18.10;85.80
27314;DHT22;14800;48.174;9.798;2023-09-07T07:54:55;18.20;85.50
27314;DHT22;14800;48.174;9.798;2023-09-07T07:57:21;18.20;85.30
27314;DHT22;14800;48.174;9.798;2023-09-07T07:59:46;18.30;85.20
27314;DHT22;14800;48.174;9.798;2023-09-07T08:02:12;18.50;85.30
27314;DHT22;14800;48.174;9.798;2023-09-07T08:04:38;18.50;85.20
27314;DHT22;14800;48.174;9.798;2023-09-07T08:07:03;18.60;85.00
27314;DHT22;14800;48.174;9.798;2023-09-07T08:09:32;18.60;84.80
27314;DHT22;14800;48.174;9.798;2023-09-07T08:11:58;18.70;84.80
27314;DHT22;14800;48.174;9.798;2023-09-07T08:14:25;18.80;84.60
27314;DHT22;14800;48.174;9.798;2023-09-07T08:16:51;18.90;84.60
27314;DHT22;14800;48.174;9.798;2023-09-07T08:19:17;19.00;84.50
27314;DHT22;14800;48.174;9.798;2023-09-07T08:21:43;19.10;84.50
27314;DHT22;14800;48.174;9.798;2023-09-07T08:24:09;19.20;84.50
27314;DHT22;14800;48.174;9.798;2023-09-07T08:26:38;19.30;84.00
27314;DHT22;14800;48.174;9.798;2023-09-07T08:29:04;19.40;83.80
27314;DHT22;14800;48.174;9.798;2023-09-07T08:31:35;19.40;83.70
27314;DHT22;14800;48.174;9.798;2023-09-07T08:34:01;19.50;83.60
27314;DHT22;14800;48.174;9.798;2023-09-07T08:36:29;19.60;83.40
27314;DHT22;14800;48.174;9.798;2023-09-07T08:38:57;19.70;84.00
27314;DHT22;14800;48.174;9.798;2023-09-07T08:41:26;19.80;84.00
27314;DHT22;14800;48.174;9.798;2023-09-07T08:43:53;19.90;83.00
27314;DHT22;14800;48.174;9.798;2023-09-07T08:46:20;20.00;83.50
27314;DHT22;14800;48.174;9.798;2023-09-07T08:48:47;20.10;82.10
27314;DHT22;14800;48.174;9.798;2023-09-07T08:51:18;20.20;82.60
27314;DHT22;14800;48.174;9.798;2023-09-07T08:53:44;20.30;81.80
27314;DHT22;14800;48.174;9.798;2023-09-07T08:56:14;20.30;81.60
27314;DHT22;14800;48.174;9.798;2023-09-07T08:58:41;20.40;81.40
27314;DHT22;14800;48.174;9.798;2023-09-07T09:01:07;20.50;81.20
27314;DHT22;14800;48.174;9.798;2023-09-07T09:03:36;20.50;80.90
27314;DHT22;14800;48.174;9.798;2023-09-07T09:06:03;20.60;80.80
27314;DHT22;14800;48.174;9.798;2023-09-07T09:08:40;20.70;80.80
27314;DHT22;14800;48.174;9.798;2023-09-07T09:11:06;20.80;80.80
27314;DHT22;14800;48.174;9.798;2023-09-07T09:13:33;20.80;80.50
27314;DHT22;14800;48.174;9.798;2023-09-07T09:16:01;20.90;80.30
27314;DHT22;14800;48.174;9.798;2023-09-07T09:18:28;21.00;80.10
27314;DHT22;14800;48.174;9.798;2023-09-07T09:20:54;21.10;80.30
27314;DHT22;14800;48.174;9.798;2023-09-07T09:23:20;21.20;80.20
27314;DHT22;14800;48.174;9.798;2023-09-07T09:25:49;21.30;79.90
27314;DHT22;14800;48.174;9.798;2023-09-07T09:28:14;21.40;79.60
27314;DHT22;14800;48.174;9.798;2023-09-07T09:30:43;21.40;79.40
27314;DHT22;14800;48.174;9.798;2023-09-07T09:33:10;21.60;79.50
27314;DHT22;14800;48.174;9.798;2023-09-07T09:35:38;21.70;79.10
27314;DHT22;14800;48.174;9.798;2023-09-07T09:38:04;21.80;79.10
27314;DHT22;14800;48.174;9.798;2023-09-07T09:40:33;21.80;80.00
27314;DHT22;14800;48.174;9.798;2023-09-07T09:43:01;21.90;78.70
27314;DHT22;14800;48.174;9.798;2023-09-07T09:45:28;22.00;78.70
27314;DHT22;14800;48.174;9.798;2023-09-07T09:47:55;22.20;78.40
27314;DHT22;14800;48.174;9.798;2023-09-07T09:50:27;22.20;78.10
27314;DHT22;14800;48.174;9.798;2023-09-07T09:52:53;22.40;77.20
27314;DHT22;14800;48.174;9.798;2023-09-07T09:55:19;22.40;76.80
27314;DHT22;14800;48.174;9.798;2023-09-07T09:57:45;22.50;76.70
27314;DHT22;14800;48.174;9.798;2023-09-07T10:00:11;22.60;76.50
27314;DHT22;14800;48.174;9.798;2023-09-07T10:03:25;22.60;76.30
27314;DHT22;14800;48.174;9.798;2023-09-07T10:05:53;22.70;75.90
27314;DHT22;14800;48.174;9.798;2023-09-07T10:08:19;22.80;75.60
27314;DHT22;14800;48.174;9.798;2023-09-07T10:10:49;22.80;75.70
27314;DHT22;14800;48.174;9.798;2023-09-07T10:13:15;22.90;76.10
27314;DHT22;14800;48.174;9.798;2023-09-07T10:15:41;23.00;75.40
27314;DHT22;14800;48.174;9.798;2023-09-07T10:18:12;23.00;75.80
27314;DHT22;14800;48.174;9.798;2023-09-07T10:23:14;23.20;74.80
27314;DHT22;14800;48.174;9.798;2023-09-07T10:25:40;23.30;75.00
27314;DHT22;14800;48.174;9.798;2023-09-07T10:28:06;23.40;74.40
27314;DHT22;14800;48.174;9.798;2023-09-07T10:30:42;23.50;74.90
27314;DHT22;14800;48.174;9.798;2023-09-07T10:33:18;23.50;74.70
27314;DHT22;14800;48.174;9.798;2023-09-07T10:35:43;23.60;74.60
27314;DHT22;14800;48.174;9.798;2023-09-07T10:38:13;23.70;74.40
27314;DHT22;14800;48.174;9.798;2023-09-07T10:40:39;23.80;73.90
27314;DHT22;14800;48.174;9.798;2023-09-07T10:43:05;23.80;73.50
27314;DHT22;14800;48.174;9.798;2023-09-07T10:45:30;23.90;73.70
27314;DHT22;14800;48.174;9.798;2023-09-07T10:47:56;24.00;73.40
27314;DHT22;14800;48.174;9.798;2023-09-07T10:50:22;24.10;73.50
27314;DHT22;14800;48.174;9.798;2023-09-07T10:52:47;24.10;73.10
27314;DHT22;14800;48.174;9.798;2023-09-07T10:55:13;24.20;72.30
27314;DHT22;14800;48.174;9.798;2023-09-07T10:57:47;24.20;72.10
27314;DHT22;14800;48.174;9.798;2023-09-07T11:00:14;24.30;72.00
27314;DHT22;14800;48.174;9.798;2023-09-07T11:02:41;24.30;72.00
27314;DHT22;14800;48.174;9.798;2023-09-07T11:05:07;24.40;72.00
27314;DHT22;14800;48.174;9.798;2023-09-07T11:07:33;24.40;72.00
27314;DHT22;14800;48.174;9.798;2023-09-07T11:10:00;24.40;71.40
27314;DHT22;14800;48.174;9.798;2023-09-07T11:12:26;24.50;71.40
27314;DHT22;14800;48.174;9.798;2023-09-07T11:14:52;24.60;71.10
27314;DHT22;14800;48.174;9.798;2023-09-07T11:17:18;24.70;71.10
27314;DHT22;14800;48.174;9.798;2023-09-07T11:19:44;24.70;70.40
27314;DHT22;14800;48.174;9.798;2023-09-07T11:22:10;24.80;70.60
27314;DHT22;14800;48.174;9.798;2023-09-07T11:24:36;24.80;70.60
27314;DHT22;14800;48.174;9.798;2023-09-07T11:27:02;24.90;70.70
27314;DHT22;14800;48.174;9.798;2023-09-07T11:29:31;25.00;70.50
27314;DHT22;14800;48.174;9.798;2023-09-07T11:32:10;25.00;69.60
27314;DHT22;14800;48.174;9.798;2023-09-07T11:34:47;25.10;69.70
27314;DHT22;14800;48.174;9.798;2023-09-07T11:37:14;25.10;68.80
27314;DHT22;14800;48.174;9.798;2023-09-07T11:39:40;25.20;69.80
27314;DHT22;14800;48.174;9.798;2023-09-07T11:42:05;25.20;70.10
27314;DHT22;14800;48.174;9.798;2023-09-07T11:44:31;25.30;69.70
27314;DHT22;14800;48.174;9.798;2023-09-07T11:46:56;25.40;69.30
27314;DHT22;14800;48.174;9.798;2023-09-07T11:49:22;25.50;69.20
27314;DHT22;14800;48.174;9.798;2023-09-07T11:51:49;25.50;69.10
27314;DHT22;14800;48.174;9.798;2023-09-07T11:54:14;25.60;69.30
27314;DHT22;14800;48.174;9.798;2023-09-07T11:56:40;25.60;68.60
27314;DHT22;14800;48.174;9.798;2023-09-07T11:59:08;25.70;68.90
27314;DHT22;14800;48.174;9.798;2023-09-07T12:01:35;25.70;68.60
27314;DHT22;14800;48.174;9.798;2023-09-07T12:04:00;25.80;68.30
27314;DHT22;14800;48.174;9.798;2023-09-07T12:06:26;25.80;67.40
27314;DHT22;14800;48.174;9.798;2023-09-07T12:09:18;25.90;67.90
27314;DHT22;14800;48.174;9.798;2023-09-07T12:11:43;25.90;66.60
27314;DHT22;14800;48.174;9.798;2023-09-07T12:14:09;25.90;67.70
27314;DHT22;14800;48.174;9.798;2023-09-07T12:16:35;26.00;67.80
27314;DHT22;14800;48.174;9.798;2023-09-07T12:19:00;26.10;67.80
27314;DHT22;14800;48.174;9.798;2023-09-07T12:21:26;26.10;67.60
27314;DHT22;14800;48.174;9.798;2023-09-07T12:23:51;26.20;67.80
27314;DHT22;14800;48.174;9.798;2023-09-07T12:26:17;26.20;67.60
27314;DHT22;14800;48.174;9.798;2023-09-07T12:28:44;26.20;67.20
27314;DHT22;14800;48.174;9.798;2023-09-07T12:31:10;26.30;67.20
27314;DHT22;14800;48.174;9.798;2023-09-07T12:33:37;26.40;67.00
27314;DHT22;14800;48.174;9.798;2023-09-07T12:36:02;26.40;66.40
27314;DHT22;14800;48.174;9.798;2023-09-07T12:38:28;26.40;66.40
27314;DHT22;14800;48.174;9.798;2023-09-07T12:40:55;26.40;66.80
27314;DHT22;14800;48.174;9.798;2023-09-07T12:43:20;26.50;66.60
27314;DHT22;14800;48.174;9.798;2023-09-07T12:45:46;26.50;66.60
27314;DHT22;14800;48.174;9.798;2023-09-07T12:48:12;26.50;66.40
27314;DHT22;14800;48.174;9.798;2023-09-07T12:50:38;26.60;66.30
27314;DHT22;14800;48.174;9.798;2023-09-07T12:53:05;26.60;66.00
27314;DHT22;14800;48.174;9.798;2023-09-07T12:55:31;26.70;66.20
27314;DHT22;14800;48.174;9.798;2023-09-07T12:57:58;26.70;66.40
27314;DHT22;14800;48.174;9.798;2023-09-07T13:00:24;26.70;66.20
27314;DHT22;14800;48.174;9.798;2023-09-07T13:02:50;26.80;66.40
27314;DHT22;14800;48.174;9.798;2023-09-07T13:05:15;26.80;66.40
27314;DHT22;14800;48.174;9.798;2023-09-07T13:07:41;26.80;66.00
27314;DHT22;14800;48.174;9.798;2023-09-07T13:10:09;26.90;66.00
27314;DHT22;14800;48.174;9.798;2023-09-07T13:12:36;26.90;65.70
27314;DHT22;14800;48.174;9.798;2023-09-07T13:15:02;26.90;65.70
27314;DHT22;14800;48.174;9.798;2023-09-07T13:17:28;27.00;66.10
27314;DHT22;14800;48.174;9.798;2023-09-07T13:19:53;27.00;65.90
27314;DHT22;14800;48.174;9.798;2023-09-07T13:22:19;27.10;65.80
27314;DHT22;14800;48.174;9.798;2023-09-07T13:24:44;27.10;65.70
27314;DHT22;14800;48.174;9.798;2023-09-07T13:27:10;27.20;65.80
27314;DHT22;14800;48.174;9.798;2023-09-07T13:29:36;27.30;65.80
27314;DHT22;14800;48.174;9.798;2023-09-07T13:32:02;27.30;65.30
27314;DHT22;14800;48.174;9.798;2023-09-07T13:34:28;27.30;64.90
27314;DHT22;14800;48.174;9.798;2023-09-07T13:36:55;27.40;65.20
27314;DHT22;14800;48.174;9.798;2023-09-07T13:39:21;27.40;64.80
27314;DHT22;14800;48.174;9.798;2023-09-07T13:41:47;27.40;64.50
27314;DHT22;14800;48.174;9.798;2023-09-07T13:44:14;27.50;64.40
27314;DHT22;14800;48.174;9.798;2023-09-07T13:46:40;27.40;64.20
27314;DHT22;14800;48.174;9.798;2023-09-07T13:49:05;27.40;64.20
27314;DHT22;14800;48.174;9.798;2023-09-07T13:51:31;27.40;64.10
27314;DHT22;14800;48.174;9.798;2023-09-07T13:54:03;27.50;64.10
27314;DHT22;14800;48.174;9.798;2023-09-07T13:56:29;27.50;64.00
27314;DHT22;14800;48.174;9.798;2023-09-07T13:58:54;27.50;64.00
27314;DHT22;14800;48.174;9.798;2023-09-07T14:01:20;27.50;63.80
27314;DHT22;14800;48.174;9.798;2023-09-07T14:03:46;27.60;63.70
27314;DHT22;14800;48.174;9.798;2023-09-07T14:06:12;27.60;63.60
27314;DHT22;14800;48.174;9.798;2023-09-07T14:08:37;27.60;63.30
27314;DHT22;14800;48.174;9.798;2023-09-07T14:11:03;27.70;63.20
27314;DHT22;14800;48.174;9.798;2023-09-07T14:13:28;27.70;63.10
27314;DHT22;14800;48.174;9.798;2023-09-07T14:15:54;27.70;63.00
27314;DHT22;14800;48.174;9.798;2023-09-07T14:18:20;27.70;62.60
27314;DHT22;14800;48.174;9.798;2023-09-07T14:20:45;27.80;62.70
27314;DHT22;14800;48.174;9.798;2023-09-07T14:23:11;27.80;62.20
27314;DHT22;14800;48.174;9.798;2023-09-07T14:25:36;27.80;62.20
27314;DHT22;14800;48.174;9.798;2023-09-07T14:28:03;27.80;62.20
27314;DHT22;14800;48.174;9.798;2023-09-07T14:30:29;27.90;62.00
27314;DHT22;14800;48.174;9.798;2023-09-07T14:32:54;27.90;61.80
27314;DHT22;14800;48.174;9.798;2023-09-07T14:35:20;27.90;61.90
27314;DHT22;14800;48.174;9.798;2023-09-07T14:37:45;27.90;62.00
27314;DHT22;14800;48.174;9.798;2023-09-07T14:40:11;27.90;61.80
27314;DHT22;14800;48.174;9.798;2023-09-07T14:42:38;28.00;61.80
27314;DHT22;14800;48.174;9.798;2023-09-07T14:45:04;28.00;61.40
27314;DHT22;14800;48.174;9.798;2023-09-07T14:47:30;28.00;61.10
27314;DHT22;14800;48.174;9.798;2023-09-07T14:49:56;28.00;61.20
27314;DHT22;14800;48.174;9.798;2023-09-07T14:52:22;28.00;60.90
27314;DHT22;14800;48.174;9.798;2023-09-07T14:54:50;28.00;60.80
27314;DHT22;14800;48.174;9.798;2023-09-07T14:57:16;28.00;60.90
27314;DHT22;14800;48.174;9.798;2023-09-07T14:59:41;28.00;60.60
27314;DHT22;14800;48.174;9.798;2023-09-07T15:02:07;28.00;60.40
27314;DHT22;14800;48.174;9.798;2023-09-07T15:04:33;28.00;60.10
27314;DHT22;14800;48.174;9.798;2023-09-07T15:07:01;28.00;60.10
27314;DHT22;14800;48.174;9.798;2023-09-07T15:09:26;28.00;60.20
27314;DHT22;14800;48.174;9.798;2023-09-07T15:11:52;28.00;60.00
27314;DHT22;14800;48.174;9.798;2023-09-07T15:14:19;28.00;59.80
27314;DHT22;14800;48.174;9.798;2023-09-07T15:16:45;28.00;59.60
27314;DHT22;14800;48.174;9.798;2023-09-07T15:19:10;28.10;59.30
27314;DHT22;14800;48.174;9.798;2023-09-07T15:21:36;28.10;59.40
27314;DHT22;14800;48.174;9.798;2023-09-07T15:24:02;28.10;59.30
27314;DHT22;14800;48.174;9.798;2023-09-07T15:26:27;28.10;59.10
27314;DHT22;14800;48.174;9.798;2023-09-07T15:28:53;28.10;58.90